createdAt,value
2018-02-21T00:00:22.789Z,68.99
2018-02-21T00:02:51.829Z,65.01
2018-02-21T00:05:20.101Z,62.91
2018-02-21T00:07:48.364Z,63.39
2018-02-21T00:10:17.407Z,68.13
2018-02-21T00:12:45.678Z,70.14
2018-02-21T00:15:14.277Z,70.21
2018-02-21T00:17:42.540Z,69.63
2018-02-21T00:20:11.588Z,69.49
2018-02-21T00:22:39.895Z,68.40
2018-02-21T00:25:08.118Z,69.44
2018-02-21T00:27:37.163Z,70.90
2018-02-21T00:30:05.441Z,70.74
2018-02-21T00:32:33.740Z,70.18
2018-02-21T00:35:02.013Z,69.87
2018-02-21T00:37:30.324Z,67.26
2018-02-21T00:39:58.597Z,66.28
2018-02-21T00:42:26.878Z,65.24
2018-02-21T00:44:55.154Z,64.15
2018-02-21T00:47:24.195Z,62.57
2018-02-21T00:49:52.457Z,60.54
2018-02-21T00:52:20.735Z,59.49
2018-02-21T00:54:49.769Z,58.72
2018-02-21T00:57:18.041Z,58.40
2018-02-21T00:59:46.314Z,58.45
2018-02-21T01:02:15.342Z,58.29
2018-02-21T01:04:43.636Z,58.12
2018-02-21T01:07:11.901Z,57.92
2018-02-21T01:09:40.941Z,58.35
2018-02-21T01:12:09.218Z,58.57
2018-02-21T01:14:37.495Z,57.85
2018-02-21T01:17:06.536Z,57.28
2018-02-21T01:19:34.823Z,56.80
2018-02-21T01:22:03.865Z,57.60
2018-02-21T01:24:32.143Z,58.03
2018-02-21T01:27:00.420Z,58.35
2018-02-21T01:29:28.693Z,57.83
2018-02-21T01:31:56.976Z,57.68
2018-02-21T01:34:25.249Z,58.48
2018-02-21T01:36:53.526Z,59.20
2018-02-21T01:39:21.795Z,59.93
2018-02-21T01:41:50.064Z,60.28
2018-02-21T01:44:18.338Z,62.73
2018-02-21T01:46:46.616Z,62.19
2018-02-21T01:49:14.885Z,65.44
2018-02-21T01:51:43.162Z,63.67
2018-02-21T01:54:11.442Z,63.70
2018-02-21T01:56:40.484Z,63.25
2018-02-21T01:59:08.765Z,62.56
2018-02-21T02:01:37.042Z,62.54
2018-02-21T02:04:05.310Z,65.00
2018-02-21T02:06:34.346Z,64.29
2018-02-21T02:09:02.625Z,64.18
2018-02-21T02:11:30.910Z,62.58
2018-02-21T02:13:59.176Z,61.84
2018-02-21T02:16:28.219Z,62.56
2018-02-21T02:18:56.494Z,68.32
2018-02-21T02:21:24.771Z,65.02
2018-02-21T02:23:53.037Z,68.57
2018-02-21T02:26:21.315Z,65.62
2018-02-21T02:28:49.579Z,65.89
2018-02-21T02:31:17.877Z,66.74
2018-02-21T02:33:46.131Z,68.30
2018-02-21T02:36:14.401Z,67.68
2018-02-21T02:41:53.096Z,64.58
2018-02-21T02:44:21.364Z,65.61
2018-02-21T02:46:49.646Z,66.12
2018-02-21T02:49:17.930Z,65.72
2018-02-21T02:51:46.217Z,65.06
2018-02-21T02:54:14.480Z,65.06
2018-02-21T02:56:43.658Z,66.20
2018-02-21T02:59:11.920Z,64.48
2018-02-21T03:01:40.196Z,64.20
2018-02-21T03:04:08.478Z,66.72
2018-02-21T03:06:37.542Z,67.49
2018-02-21T03:09:05.810Z,69.42
2018-02-21T03:11:34.084Z,71.03
2018-02-21T03:14:02.517Z,71.76
2018-02-21T03:16:30.800Z,72.37
2018-02-21T03:18:59.074Z,71.91
2018-02-21T03:21:27.349Z,70.99
2018-02-21T03:23:55.638Z,72.24
2018-02-21T03:26:23.921Z,68.04
2018-02-21T03:28:52.189Z,68.34
2018-02-21T03:31:20.462Z,68.12
2018-02-21T03:33:49.498Z,69.40
2018-02-21T03:36:17.777Z,67.09
2018-02-21T03:38:46.044Z,66.06
2018-02-21T03:41:15.082Z,66.67
2018-02-21T03:43:43.371Z,69.43
2018-02-21T03:46:11.636Z,69.74
2018-02-21T03:48:40.689Z,70.05
2018-02-21T03:51:08.962Z,69.53
2018-02-21T03:53:37.236Z,69.19
2018-02-21T03:56:05.505Z,68.56
2018-02-21T03:58:34.540Z,69.98
2018-02-21T04:01:02.818Z,68.10
2018-02-21T04:03:31.110Z,69.04
2018-02-21T04:05:59.387Z,69.32
2018-02-21T04:08:27.656Z,68.19
2018-02-21T04:10:56.684Z,67.43
2018-02-21T04:13:24.955Z,67.39
2018-02-21T04:15:53.984Z,67.01
2018-02-21T04:18:22.247Z,69.29
2018-02-21T04:20:51.276Z,65.79
2018-02-21T04:23:19.561Z,65.08
2018-02-21T04:25:47.836Z,63.66
2018-02-21T04:28:16.867Z,61.89
2018-02-21T04:30:45.147Z,61.31
2018-02-21T04:33:13.422Z,59.91
2018-02-21T04:35:41.685Z,58.79
2018-02-21T04:38:09.957Z,58.31
2018-02-21T04:40:38.365Z,57.52
2018-02-21T04:43:06.641Z,58.80
2018-02-21T04:45:34.904Z,62.08
2018-02-21T04:48:03.188Z,60.90
2018-02-21T04:50:31.452Z,58.92
2018-02-21T04:52:59.744Z,59.16
2018-02-21T04:58:56.501Z,63.83
2018-02-21T05:01:24.760Z,60.96
2018-02-21T05:03:53.044Z,63.31
2018-02-21T05:06:21.347Z,65.63
2018-02-21T05:08:49.584Z,70.35
2018-02-21T05:11:17.844Z,72.63
2018-02-21T05:13:46.103Z,71.70
2018-02-21T05:16:14.402Z,71.17
2018-02-21T05:18:42.659Z,71.85
2018-02-21T05:21:10.946Z,72.04
2018-02-21T05:23:39.218Z,73.98
2018-02-21T05:26:07.498Z,74.83
2018-02-21T05:28:35.764Z,76.29
2018-02-21T05:31:04.826Z,75.92
2018-02-21T05:33:33.088Z,74.80
2018-02-21T05:36:01.375Z,75.12
2018-02-21T05:38:29.645Z,73.52
2018-02-21T05:40:58.698Z,71.50
2018-02-21T05:43:26.964Z,69.79
2018-02-21T05:45:55.254Z,69.06
2018-02-21T05:48:25.112Z,67.59
2018-02-21T05:50:53.397Z,64.92
2018-02-21T05:53:21.676Z,63.53
2018-02-21T05:55:49.944Z,62.13
2018-02-21T05:58:18.203Z,62.28
2018-02-21T06:00:47.261Z,62.41
2018-02-21T06:03:15.525Z,61.76
2018-02-21T06:05:43.785Z,61.08
2018-02-21T06:08:12.825Z,60.12
2018-02-21T06:10:41.085Z,60.45
2018-02-21T06:13:10.145Z,59.89
2018-02-21T06:15:38.400Z,59.35
2018-02-21T06:18:06.689Z,60.70
2018-02-21T06:20:34.953Z,59.35
2018-02-21T06:23:03.998Z,58.48
2018-02-21T06:25:33.044Z,58.26
2018-02-21T06:28:01.318Z,57.87
2018-02-21T06:30:29.575Z,56.93
2018-02-21T06:32:57.859Z,57.62
2018-02-21T06:35:26.128Z,60.85
2018-02-21T06:37:54.419Z,61.35
2018-02-21T06:40:22.708Z,59.56
2018-02-21T06:42:51.929Z,58.51
2018-02-21T06:45:20.198Z,60.23
2018-02-21T06:47:49.260Z,64.55
2018-02-21T06:50:17.525Z,65.19
2018-02-21T06:52:45.824Z,66.17
2018-02-21T06:55:14.098Z,68.30
2018-02-21T06:57:42.377Z,69.95
2018-02-21T07:00:10.693Z,72.28
2018-02-21T07:02:38.946Z,71.05
2018-02-21T07:05:07.213Z,71.93
2018-02-21T07:07:36.296Z,73.41
2018-02-21T07:10:04.634Z,75.37
2018-02-21T07:12:32.916Z,74.17
2018-02-21T07:15:01.186Z,75.00
2018-02-21T07:17:30.222Z,74.67
2018-02-21T07:19:58.513Z,75.41
2018-02-21T07:22:26.792Z,74.84
2018-02-21T07:24:55.069Z,74.31
2018-02-21T07:27:28.286Z,74.18
2018-02-21T07:29:56.573Z,73.82
2018-02-21T07:32:25.636Z,72.11
2018-02-21T07:34:53.916Z,73.11
2018-02-21T07:37:22.194Z,74.22
2018-02-21T07:39:50.463Z,74.08
2018-02-21T07:42:18.743Z,74.33
2018-02-21T07:44:47.026Z,74.10
2018-02-21T07:47:16.069Z,73.20
2018-02-21T07:49:44.349Z,72.76
2018-02-21T07:52:12.624Z,71.04
2018-02-21T07:54:40.917Z,70.13
2018-02-21T07:57:09.194Z,69.86
2018-02-21T07:59:37.471Z,68.56
2018-02-21T08:02:06.510Z,68.25
2018-02-21T08:04:34.781Z,65.57
2018-02-21T08:07:03.065Z,67.80
2018-02-21T08:09:31.358Z,68.66
2018-02-21T08:11:59.630Z,68.09
2018-02-21T08:14:28.676Z,69.54
2018-02-21T08:16:56.950Z,69.66
2018-02-21T08:19:25.232Z,69.50
2018-02-21T08:21:53.509Z,70.00
2018-02-21T08:24:22.545Z,68.60
2018-02-21T08:26:51.092Z,69.52
2018-02-21T08:29:20.131Z,67.63
2018-02-21T08:31:48.392Z,67.40
2018-02-21T08:34:17.456Z,66.03
2018-02-21T08:36:45.725Z,65.82
2018-02-21T08:39:14.869Z,65.43
2018-02-21T08:41:43.140Z,64.67
2018-02-21T08:44:11.415Z,63.31
2018-02-21T08:46:39.688Z,63.04
2018-02-21T08:49:07.977Z,62.49
2018-02-21T08:51:36.256Z,63.42
2018-02-21T08:54:04.555Z,63.01
2018-02-21T08:56:32.841Z,63.80
2018-02-21T08:59:01.119Z,62.40
2018-02-21T09:01:29.390Z,62.49
2018-02-21T09:03:58.448Z,62.94
2018-02-21T09:06:26.722Z,63.10
2018-02-21T09:08:54.991Z,63.35
2018-02-21T09:11:23.256Z,61.66
2018-02-21T09:13:52.305Z,59.94
2018-02-21T09:16:20.581Z,60.16
2018-02-21T09:18:48.864Z,58.67
2018-02-21T09:21:17.137Z,57.57
2018-02-21T09:23:45.956Z,56.76
2018-02-21T09:26:14.217Z,59.04
2018-02-21T09:28:43.255Z,57.03
2018-02-21T09:31:11.523Z,56.25
2018-02-21T09:33:39.789Z,57.03
2018-02-21T09:36:08.825Z,57.59
2018-02-21T09:38:37.121Z,54.36
2018-02-21T09:41:05.388Z,54.11
2018-02-21T09:43:34.441Z,53.12
2018-02-21T09:46:02.718Z,53.81
2018-02-21T09:48:30.994Z,53.71
2018-02-21T09:50:59.274Z,54.13
2018-02-21T09:53:27.534Z,52.90
2018-02-21T09:55:55.798Z,54.46
2018-02-21T09:58:24.071Z,54.31
2018-02-21T10:00:52.346Z,52.28
2018-02-21T10:03:20.611Z,53.13
2018-02-21T10:05:48.885Z,54.07
2018-02-21T10:08:17.924Z,54.17
2018-02-21T10:10:46.203Z,53.94
2018-02-21T10:13:14.460Z,55.52
2018-02-21T10:15:43.500Z,52.04
2018-02-21T10:18:11.774Z,51.78
2018-02-21T10:20:40.049Z,51.21
2018-02-21T10:23:09.084Z,52.37
2018-02-21T10:25:37.373Z,51.63
2018-02-21T10:28:05.637Z,49.99
2018-02-21T10:30:33.917Z,52.57
2018-02-21T10:33:02.948Z,51.55
2018-02-21T10:35:31.230Z,53.30
2018-02-21T10:37:59.501Z,56.51
2018-02-21T10:40:28.537Z,56.23
2018-02-21T10:42:56.818Z,56.68
2018-02-21T10:45:25.136Z,56.86
2018-02-21T10:47:53.414Z,57.95
2018-02-21T10:50:21.705Z,58.57
2018-02-21T10:52:49.972Z,57.82
2018-02-21T10:55:18.250Z,58.83
2018-02-21T10:57:46.507Z,58.60
2018-02-21T11:00:21.094Z,58.22
2018-02-21T11:02:49.361Z,57.46
2018-02-21T11:05:17.639Z,56.71
2018-02-21T11:07:45.909Z,56.82
2018-02-21T11:10:15.034Z,56.22
2018-02-21T11:12:44.085Z,57.32
2018-02-21T11:15:12.351Z,55.51
2018-02-21T11:17:40.615Z,56.63
2018-02-21T11:20:09.656Z,55.70
2018-02-21T11:22:37.930Z,54.81
2018-02-21T11:25:06.216Z,55.67
2018-02-21T11:27:34.499Z,55.06
2018-02-21T11:30:02.922Z,55.85
2018-02-21T11:32:31.196Z,56.82
2018-02-21T11:34:59.470Z,57.43
2018-02-21T11:37:27.749Z,55.55
2018-02-21T11:39:56.794Z,56.39
2018-02-21T11:42:25.074Z,55.82
2018-02-21T11:44:53.345Z,54.61
2018-02-21T11:47:21.600Z,51.71
2018-02-21T11:49:49.882Z,49.84
2018-02-21T11:52:18.145Z,50.36
2018-02-21T11:54:46.413Z,48.39
2018-02-21T11:57:14.672Z,46.12
2018-02-21T11:59:43.704Z,50.17
2018-02-21T12:02:11.969Z,50.55
2018-02-21T12:04:41.005Z,51.89
2018-02-21T12:07:09.274Z,51.93
2018-02-21T12:09:37.544Z,52.60
2018-02-21T12:12:06.573Z,53.46
2018-02-21T12:14:34.836Z,51.99
2018-02-21T12:17:03.864Z,51.27
2018-02-21T12:19:32.140Z,49.96
2018-02-21T12:22:00.428Z,48.79
2018-02-21T12:24:29.489Z,49.75
2018-02-21T12:26:57.758Z,49.63
2018-02-21T12:29:26.073Z,51.09
2018-02-21T12:31:58.840Z,52.51
2018-02-21T12:34:27.213Z,53.58
2018-02-21T12:36:55.498Z,54.22
2018-02-21T12:39:29.208Z,51.21
2018-02-21T12:41:57.558Z,51.65
2018-02-21T12:44:25.825Z,52.21
2018-02-21T12:46:54.108Z,52.65
2018-02-21T12:49:22.372Z,53.31
2018-02-21T12:51:50.655Z,54.03
2018-02-21T12:54:18.928Z,54.30
2018-02-21T12:56:47.965Z,55.02
2018-02-21T12:59:16.295Z,55.54
2018-02-21T13:01:44.531Z,56.28
2018-02-21T13:04:12.810Z,56.66
2018-02-21T13:06:41.427Z,56.73
2018-02-21T13:09:09.702Z,56.99
2018-02-21T13:11:37.989Z,56.58
2018-02-21T13:14:06.264Z,55.83
2018-02-21T13:16:34.536Z,58.08
2018-02-21T13:19:03.582Z,57.17
2018-02-21T13:21:31.854Z,57.62
2018-02-21T13:24:00.125Z,57.98
2018-02-21T13:26:29.161Z,57.24
2018-02-21T13:28:57.420Z,58.45
2018-02-21T13:31:26.465Z,55.79
2018-02-21T13:33:54.727Z,56.49
2018-02-21T13:36:23.546Z,57.14
2018-02-21T13:38:52.647Z,57.50
2018-02-21T13:41:20.931Z,55.80
2018-02-21T13:43:49.223Z,54.84
2018-02-21T13:46:17.497Z,54.55
2018-02-21T13:48:45.760Z,53.84
2018-02-21T13:51:14.036Z,55.45
2018-02-21T13:53:42.307Z,54.32
2018-02-21T13:56:10.588Z,54.24
2018-02-21T13:58:38.858Z,53.39
2018-02-21T14:01:07.146Z,52.75
2018-02-21T14:03:35.412Z,52.11
2018-02-21T14:06:04.458Z,53.06
2018-02-21T14:08:32.729Z,51.92
2018-02-21T14:11:01.006Z,51.07
2018-02-21T14:13:29.277Z,51.55
2018-02-21T14:15:58.312Z,50.80
2018-02-21T14:18:26.595Z,50.88
2018-02-21T14:20:54.871Z,51.53
2018-02-21T14:23:23.910Z,53.55
2018-02-21T14:25:55.551Z,54.11
2018-02-21T14:28:23.846Z,54.21
2018-02-21T14:30:52.134Z,54.00
2018-02-21T14:33:20.408Z,54.35
2018-02-21T14:35:49.466Z,54.51
2018-02-21T14:38:17.744Z,54.66
2018-02-21T14:40:46.025Z,53.13
2018-02-21T14:43:14.300Z,53.85
2018-02-21T14:45:43.610Z,53.93
2018-02-21T14:48:11.873Z,56.03
2018-02-21T14:50:40.917Z,56.43
2018-02-21T14:53:09.216Z,58.56
2018-02-21T14:55:37.502Z,59.70
2018-02-21T14:58:05.781Z,60.30
2018-02-21T15:00:34.057Z,58.54
2018-02-21T15:03:02.333Z,57.62
2018-02-21T15:05:31.373Z,57.58
2018-02-21T15:07:59.645Z,56.23
2018-02-21T15:10:27.923Z,55.76
2018-02-21T15:12:56.205Z,55.71
2018-02-21T15:15:24.500Z,54.88
2018-02-21T15:17:52.780Z,56.15
2018-02-21T15:20:21.816Z,55.61
2018-02-21T15:22:50.093Z,56.79
2018-02-21T15:25:18.366Z,56.35
2018-02-21T15:27:46.649Z,56.03
2018-02-21T15:30:16.954Z,55.89
2018-02-21T15:32:45.201Z,56.15
2018-02-21T15:35:13.532Z,56.87
2018-02-21T15:37:41.761Z,58.94
2018-02-21T15:40:10.036Z,59.50
2018-02-21T15:42:39.077Z,60.55
2018-02-21T15:45:10.572Z,60.69
2018-02-21T15:47:38.854Z,59.98
2018-02-21T15:50:07.125Z,58.60
2018-02-21T15:52:35.400Z,59.51
2018-02-21T15:55:03.768Z,58.54
2018-02-21T15:57:32.808Z,61.50
2018-02-21T16:00:01.089Z,60.13
2018-02-21T16:02:29.377Z,60.07
2018-02-21T16:04:57.657Z,60.47
2018-02-21T16:07:25.928Z,61.54
2018-02-21T16:09:54.196Z,62.42
2018-02-21T16:12:23.248Z,63.09
2018-02-21T16:14:51.551Z,62.51
2018-02-21T16:17:19.841Z,61.36
2018-02-21T16:19:48.108Z,62.37
2018-02-21T16:22:16.414Z,64.09
2018-02-21T16:24:44.684Z,63.21
2018-02-21T16:27:12.960Z,62.55
2018-02-21T16:29:41.233Z,64.35
2018-02-21T16:32:10.264Z,64.00
2018-02-21T16:34:38.534Z,65.27
2018-02-21T16:37:06.812Z,64.76
2018-02-21T16:39:35.845Z,63.44
2018-02-21T16:42:04.115Z,62.45
2018-02-21T16:44:33.152Z,62.27
2018-02-21T16:47:01.428Z,63.01
2018-02-21T16:49:29.706Z,61.83
2018-02-21T16:51:58.015Z,62.53
2018-02-21T16:54:27.153Z,62.70
2018-02-21T16:56:55.427Z,62.27
2018-02-21T16:59:23.696Z,62.48
2018-02-21T17:01:51.986Z,61.01
2018-02-21T17:04:20.265Z,60.72
2018-02-21T17:06:48.556Z,59.83
2018-02-21T17:09:16.822Z,59.09
2018-02-21T17:11:45.876Z,60.02
2018-02-21T17:14:14.143Z,61.23
2018-02-21T17:16:42.414Z,60.74
2018-02-21T17:19:10.698Z,61.47
2018-02-21T17:21:39.750Z,61.95
2018-02-21T17:24:08.029Z,60.48
2018-02-21T17:26:36.347Z,62.43
2018-02-21T17:29:04.664Z,62.12
2018-02-21T17:31:33.699Z,60.81
2018-02-21T17:34:01.974Z,59.98
2018-02-21T17:36:30.251Z,60.77
2018-02-21T17:38:59.287Z,61.19
2018-02-21T17:41:33.562Z,61.84
2018-02-21T17:44:06.816Z,61.04
2018-02-21T17:46:35.867Z,61.63
2018-02-21T17:49:04.140Z,62.13
2018-02-21T17:51:32.445Z,60.67
2018-02-21T17:54:04.274Z,60.56
2018-02-21T17:56:37.292Z,60.99
2018-02-21T17:59:05.557Z,61.42
2018-02-21T18:01:33.821Z,59.97
2018-02-21T18:04:02.868Z,60.44
2018-02-21T18:06:31.143Z,61.57
2018-02-21T18:09:18.080Z,59.61
2018-02-21T18:11:46.365Z,59.49
2018-02-21T18:14:16.587Z,59.50
2018-02-21T18:16:44.865Z,59.70
2018-02-21T18:19:13.135Z,60.91
2018-02-21T18:21:50.810Z,60.01
2018-02-21T18:24:19.122Z,58.63
2018-02-21T18:26:47.418Z,59.79
2018-02-21T18:29:15.681Z,59.32
2018-02-21T18:31:43.948Z,59.07
2018-02-21T18:34:14.170Z,58.90
2018-02-21T18:36:42.556Z,58.05
2018-02-21T18:39:10.865Z,57.84
2018-02-21T18:41:39.138Z,57.56
2018-02-21T18:44:07.413Z,57.22
2018-02-21T18:46:35.681Z,57.39
2018-02-21T18:49:04.732Z,57.26
2018-02-21T18:51:32.995Z,57.82
2018-02-21T18:54:01.269Z,57.99
2018-02-21T18:56:30.316Z,59.63
2018-02-21T18:58:58.593Z,59.88
2018-02-21T19:01:28.824Z,59.61
2018-02-21T19:03:57.101Z,60.94
2018-02-21T19:06:25.373Z,62.18
2018-02-21T19:09:13.673Z,61.92
2018-02-21T19:11:41.925Z,63.87
2018-02-21T19:14:10.965Z,64.69
2018-02-21T19:16:39.994Z,65.25
2018-02-21T19:19:08.269Z,65.98
2018-02-21T19:21:37.454Z,66.88
2018-02-21T19:24:05.727Z,67.17
2018-02-21T19:26:34.763Z,67.39
2018-02-21T19:29:03.166Z,68.17
2018-02-21T19:31:31.437Z,68.85
2018-02-21T19:33:59.706Z,68.48
2018-02-21T19:36:28.732Z,68.02
2018-02-21T19:38:57.020Z,69.17
2018-02-21T19:41:25.285Z,69.37
2018-02-21T19:43:56.258Z,68.20
2018-02-21T19:46:25.457Z,68.25
2018-02-21T19:48:55.419Z,68.91
2018-02-21T19:54:02.016Z,70.88
2018-02-21T19:56:30.272Z,70.48
2018-02-21T19:58:59.322Z,70.71
2018-02-21T20:01:27.589Z,71.31
2018-02-21T20:03:55.880Z,72.67
2018-02-21T20:06:24.146Z,72.60
2018-02-21T20:08:53.518Z,72.98
2018-02-21T20:11:21.787Z,73.79
2018-02-21T20:13:50.060Z,73.38
2018-02-21T20:16:18.363Z,72.61
2018-02-21T20:18:46.637Z,73.00
2018-02-21T20:21:14.901Z,73.91
2018-02-21T20:23:43.954Z,73.59
2018-02-21T20:26:12.230Z,73.79
2018-02-21T20:28:40.514Z,74.39
2018-02-21T20:31:08.788Z,74.20
2018-02-21T20:33:37.076Z,72.36
2018-02-21T20:36:05.353Z,73.48
2018-02-21T20:38:33.641Z,73.17
2018-02-21T20:41:02.677Z,72.07
2018-02-21T20:43:31.742Z,73.77
2018-02-21T20:46:00.002Z,73.53
2018-02-21T20:48:28.278Z,73.02
2018-02-21T20:50:56.540Z,73.10
2018-02-21T20:53:24.821Z,72.61
2018-02-21T20:55:53.083Z,72.50
2018-02-21T20:58:22.119Z,72.32
2018-02-21T21:00:50.396Z,74.23
2018-02-21T21:03:18.683Z,74.94
2018-02-21T21:05:47.718Z,74.19
2018-02-21T21:08:16.016Z,74.06
2018-02-21T21:10:44.284Z,74.03
2018-02-21T21:13:12.565Z,73.47
2018-02-21T21:15:40.842Z,74.06
2018-02-21T21:18:09.125Z,74.49
2018-02-21T21:20:37.426Z,73.19
2018-02-21T21:23:05.704Z,73.84
2018-02-21T21:25:34.728Z,73.05
2018-02-21T21:28:03.031Z,72.30
2018-02-21T21:30:31.287Z,73.92
2018-02-21T21:33:00.340Z,73.66
2018-02-21T21:35:28.622Z,73.59
2018-02-21T21:37:56.905Z,74.03
2018-02-21T21:40:25.949Z,74.33
2018-02-21T21:42:54.228Z,73.88
2018-02-21T21:45:22.512Z,72.36
2018-02-21T21:47:50.789Z,72.61
2018-02-21T21:50:19.077Z,71.61
2018-02-21T21:52:47.353Z,71.87
2018-02-21T21:55:15.628Z,72.25
2018-02-21T21:57:43.909Z,71.21
2018-02-21T22:00:12.179Z,71.87
2018-02-21T22:02:41.234Z,72.21
2018-02-21T22:05:09.507Z,71.30
2018-02-21T22:07:37.782Z,70.77
2018-02-21T22:10:06.067Z,73.11
2018-02-21T22:12:34.340Z,72.51
2018-02-21T22:15:03.381Z,71.82
2018-02-21T22:17:31.651Z,71.20
2018-02-21T22:19:59.920Z,71.20
2018-02-21T22:22:28.948Z,70.36
2018-02-21T22:24:57.229Z,69.61
2018-02-21T22:27:25.505Z,70.13
2018-02-21T22:29:54.562Z,70.53
2018-02-21T22:32:22.825Z,71.02
2018-02-21T22:34:51.105Z,70.07
2018-02-21T22:37:19.382Z,69.99
2018-02-21T22:39:48.424Z,69.32
2018-02-21T22:42:16.694Z,68.33
2018-02-21T22:44:44.982Z,69.98
2018-02-21T22:47:13.257Z,70.71
2018-02-21T22:49:41.527Z,69.63
2018-02-21T22:52:10.572Z,70.26
2018-02-21T22:54:38.853Z,69.54
2018-02-21T22:57:07.889Z,68.10
2018-02-21T22:59:36.171Z,67.98
2018-02-21T23:02:04.442Z,68.64
2018-02-21T23:04:32.715Z,69.41
2018-02-21T23:07:00.986Z,68.03
2018-02-21T23:09:30.038Z,68.54
2018-02-21T23:11:58.299Z,68.79
2018-02-21T23:14:26.577Z,69.52
2018-02-21T23:16:54.859Z,68.60
2018-02-21T23:19:23.896Z,68.66
2018-02-21T23:21:52.178Z,68.13
2018-02-21T23:24:20.444Z,67.29
2018-02-21T23:26:49.479Z,67.64
2018-02-21T23:29:17.761Z,68.07
2018-02-21T23:31:46.791Z,68.44
2018-02-21T23:34:15.072Z,66.63
2018-02-21T23:36:43.332Z,66.56
2018-02-21T23:39:11.603Z,67.18
2018-02-21T23:41:40.630Z,67.33
2018-02-21T23:44:08.912Z,67.06
2018-02-21T23:46:37.947Z,67.55
2018-02-21T23:49:06.234Z,67.50
2018-02-21T23:51:34.503Z,67.48
2018-02-21T23:54:02.779Z,67.21
2018-02-21T23:56:31.813Z,66.94
2018-02-21T23:59:00.088Z,66.63
